sensor_id;sensor_type;location;lat;lon;timestamp;temperature;humidity
17240;DHT22;9943;54.378;18.604;2022-12-18T00:00:08;-1.90;99.90
17240;DHT22;9943;54.378;18.604;2022-12-18T00:02:37;-1.90;99.90
17240;DHT22;9943;54.378;18.604;2022-12-18T00:05:08;-1.90;99.90
17240;DHT22;9943;54.378;18.604;2022-12-18T00:07:38;-2.00;99.90
17240;DHT22;9943;54.378;18.604;2022-12-18T00:10:07;-1.90;99.90
17240;DHT22;9943;54.378;18.604;2022-12-18T00:12:36;-2.00;99.90
17240;DHT22;9943;54.378;18.604;2022-12-18T00:15:05;-2.10;99.90
17240;DHT22;9943;54.378;18.604;2022-12-18T00:17:34;-2.10;99.90
17240;DHT22;9943;54.378;18.604;2022-12-18T00:20:07;-2.00;99.90
17240;DHT22;9943;54.378;18.604;2022-12-18T00:22:40;-2.10;99.90
17240;DHT22;9943;54.378;18.604;2022-12-18T00:25:11;-2.30;99.90
17240;DHT22;9943;54.378;18.604;2022-12-18T00:27:39;-2.10;99.90
17240;DHT22;9943;54.378;18.604;2022-12-18T00:30:09;-2.20;99.90
17240;DHT22;9943;54.378;18.604;2022-12-18T00:32:39;-2.30;99.90
17240;DHT22;9943;54.378;18.604;2022-12-18T00:35:08;-2.40;99.90
17240;DHT22;9943;54.378;18.604;2022-12-18T00:37:36;-2.40;99.90
17240;DHT22;9943;54.378;18.604;2022-12-18T00:40:12;-2.50;99.90
17240;DHT22;9943;54.378;18.604;2022-12-18T00:42:40;-2.50;99.90
17240;DHT22;9943;54.378;18.604;2022-12-18T00:45:24;-2.50;99.90
17240;DHT22;9943;54.378;18.604;2022-12-18T00:47:54;-2.60;99.90
17240;DHT22;9943;54.378;18.604;2022-12-18T00:50:24;-2.60;99.90
17240;DHT22;9943;54.378;18.604;2022-12-18T00:52:53;-2.60;99.90
17240;DHT22;9943;54.378;18.604;2022-12-18T00:55:22;-2.80;99.90
17240;DHT22;9943;54.378;18.604;2022-12-18T00:57:52;-2.70;99.90
17240;DHT22;9943;54.378;18.604;2022-12-18T01:00:20;-2.90;99.90
17240;DHT22;9943;54.378;18.604;2022-12-18T01:02:49;-2.90;99.90
17240;DHT22;9943;54.378;18.604;2022-12-18T01:05:17;-2.90;99.90
17240;DHT22;9943;54.378;18.604;2022-12-18T01:07:45;-3.00;99.90
17240;DHT22;9943;54.378;18.604;2022-12-18T01:10:13;-2.80;99.90
17240;DHT22;9943;54.378;18.604;2022-12-18T01:12:43;-2.90;99.90
17240;DHT22;9943;54.378;18.604;2022-12-18T01:15:13;-3.80;99.90
17240;DHT22;9943;54.378;18.604;2022-12-18T01:17:44;-2.90;99.90
17240;DHT22;9943;54.378;18.604;2022-12-18T01:20:13;-2.80;99.90
17240;DHT22;9943;54.378;18.604;2022-12-18T01:22:41;-2.80;99.90
17240;DHT22;9943;54.378;18.604;2022-12-18T01:25:10;-2.80;99.90
17240;DHT22;9943;54.378;18.604;2022-12-18T01:27:40;-2.70;99.90
17240;DHT22;9943;54.378;18.604;2022-12-18T01:30:11;-2.60;99.90
17240;DHT22;9943;54.378;18.604;2022-12-18T01:32:40;-2.60;99.90
17240;DHT22;9943;54.378;18.604;2022-12-18T01:35:08;-2.50;99.90
17240;DHT22;9943;54.378;18.604;2022-12-18T01:37:37;-2.40;99.90
17240;DHT22;9943;54.378;18.604;2022-12-18T01:40:08;-2.40;99.90
17240;DHT22;9943;54.378;18.604;2022-12-18T01:42:37;-2.60;99.90
17240;DHT22;9943;54.378;18.604;2022-12-18T01:45:21;-2.40;99.90
17240;DHT22;9943;54.378;18.604;2022-12-18T01:47:52;-2.20;99.90
17240;DHT22;9943;54.378;18.604;2022-12-18T01:50:23;-1.20;99.90
17240;DHT22;9943;54.378;18.604;2022-12-18T01:52:55;-2.20;99.90
17240;DHT22;9943;54.378;18.604;2022-12-18T01:55:26;-2.20;99.90
17240;DHT22;9943;54.378;18.604;2022-12-18T01:57:59;-2.00;99.90
17240;DHT22;9943;54.378;18.604;2022-12-18T02:00:29;-1.80;99.90
17240;DHT22;9943;54.378;18.604;2022-12-18T02:03:00;-2.20;99.90
17240;DHT22;9943;54.378;18.604;2022-12-18T02:05:38;-1.50;99.90
17240;DHT22;9943;54.378;18.604;2022-12-18T02:08:12;-1.40;99.90
17240;DHT22;9943;54.378;18.604;2022-12-18T02:10:51;-1.80;99.90
17240;DHT22;9943;54.378;18.604;2022-12-18T02:13:29;-1.70;99.90
17240;DHT22;9943;54.378;18.604;2022-12-18T02:16:06;-1.20;99.90
17240;DHT22;9943;54.378;18.604;2022-12-18T02:18:41;-1.20;99.90
17240;DHT22;9943;54.378;18.604;2022-12-18T02:21:21;-1.00;99.90
17240;DHT22;9943;54.378;18.604;2022-12-18T02:23:56;-1.10;99.90
17240;DHT22;9943;54.378;18.604;2022-12-18T02:26:30;-1.40;99.90
17240;DHT22;9943;54.378;18.604;2022-12-18T02:29:05;-0.30;99.90
17240;DHT22;9943;54.378;18.604;2022-12-18T02:31:39;-1.30;99.90
17240;DHT22;9943;54.378;18.604;2022-12-18T02:34:11;-1.00;99.90
17240;DHT22;9943;54.378;18.604;2022-12-18T02:36:41;-1.50;99.90
17240;DHT22;9943;54.378;18.604;2022-12-18T02:39:14;-1.00;99.90
17240;DHT22;9943;54.378;18.604;2022-12-18T02:41:48;-1.40;99.90
17240;DHT22;9943;54.378;18.604;2022-12-18T02:44:19;-1.30;99.90
17240;DHT22;9943;54.378;18.604;2022-12-18T02:46:50;-1.80;99.90
17240;DHT22;9943;54.378;18.604;2022-12-18T02:49:30;-1.20;99.90
17240;DHT22;9943;54.378;18.604;2022-12-18T02:52:11;-1.00;99.90
17240;DHT22;9943;54.378;18.604;2022-12-18T02:54:52;-1.40;99.90
17240;DHT22;9943;54.378;18.604;2022-12-18T02:57:27;-0.90;99.90
17240;DHT22;9943;54.378;18.604;2022-12-18T03:00:01;-0.70;99.90
17240;DHT22;9943;54.378;18.604;2022-12-18T03:02:37;-0.80;99.90
17240;DHT22;9943;54.378;18.604;2022-12-18T03:05:12;-1.20;99.90
17240;DHT22;9943;54.378;18.604;2022-12-18T03:07:44;-0.80;99.90
17240;DHT22;9943;54.378;18.604;2022-12-18T03:10:23;-0.90;99.90
17240;DHT22;9943;54.378;18.604;2022-12-18T03:12:57;-1.40;99.90
17240;DHT22;9943;54.378;18.604;2022-12-18T03:15:36;-1.20;99.90
17240;DHT22;9943;54.378;18.604;2022-12-18T03:18:10;-0.90;99.90
17240;DHT22;9943;54.378;18.604;2022-12-18T03:20:42;-1.40;99.90
17240;DHT22;9943;54.378;18.604;2022-12-18T03:23:13;-0.80;99.90
17240;DHT22;9943;54.378;18.604;2022-12-18T03:25:44;-0.20;99.90
17240;DHT22;9943;54.378;18.604;2022-12-18T03:28:20;-0.70;99.90
17240;DHT22;9943;54.378;18.604;2022-12-18T03:30:55;-1.30;99.90
17240;DHT22;9943;54.378;18.604;2022-12-18T03:33:27;-1.00;99.90
17240;DHT22;9943;54.378;18.604;2022-12-18T03:36:01;-1.20;99.90
17240;DHT22;9943;54.378;18.604;2022-12-18T03:38:29;-1.00;99.90
17240;DHT22;9943;54.378;18.604;2022-12-18T03:41:02;-1.00;99.90
17240;DHT22;9943;54.378;18.604;2022-12-18T03:43:43;-1.30;99.90
17240;DHT22;9943;54.378;18.604;2022-12-18T03:46:20;-0.80;99.90
17240;DHT22;9943;54.378;18.604;2022-12-18T03:48:55;-1.00;99.90
17240;DHT22;9943;54.378;18.604;2022-12-18T03:51:31;-1.40;99.90
17240;DHT22;9943;54.378;18.604;2022-12-18T03:54:05;-1.00;99.90
17240;DHT22;9943;54.378;18.604;2022-12-18T03:56:38;-0.80;99.90
17240;DHT22;9943;54.378;18.604;2022-12-18T03:59:10;-0.80;99.90
17240;DHT22;9943;54.378;18.604;2022-12-18T04:01:42;-1.00;99.90
17240;DHT22;9943;54.378;18.604;2022-12-18T04:04:14;-1.80;99.90
17240;DHT22;9943;54.378;18.604;2022-12-18T04:06:44;-1.20;99.90
17240;DHT22;9943;54.378;18.604;2022-12-18T04:09:14;-0.90;99.90
17240;DHT22;9943;54.378;18.604;2022-12-18T04:11:43;-0.80;99.90
17240;DHT22;9943;54.378;18.604;2022-12-18T04:14:13;-1.20;99.90
17240;DHT22;9943;54.378;18.604;2022-12-18T04:16:41;-1.30;99.90
17240;DHT22;9943;54.378;18.604;2022-12-18T04:19:10;-1.60;99.90
17240;DHT22;9943;54.378;18.604;2022-12-18T04:21:38;-1.30;99.90
17240;DHT22;9943;54.378;18.604;2022-12-18T04:24:07;-1.60;99.90
17240;DHT22;9943;54.378;18.604;2022-12-18T04:26:35;-1.70;99.90
17240;DHT22;9943;54.378;18.604;2022-12-18T04:29:03;-1.60;99.90
17240;DHT22;9943;54.378;18.604;2022-12-18T04:31:33;-1.00;99.90
17240;DHT22;9943;54.378;18.604;2022-12-18T04:34:01;-1.70;99.90
17240;DHT22;9943;54.378;18.604;2022-12-18T04:36:30;-1.10;99.90
17240;DHT22;9943;54.378;18.604;2022-12-18T04:38:58;-1.40;99.90
17240;DHT22;9943;54.378;18.604;2022-12-18T04:41:27;-1.50;99.90
17240;DHT22;9943;54.378;18.604;2022-12-18T04:43:55;-1.20;99.90
17240;DHT22;9943;54.378;18.604;2022-12-18T04:46:24;-1.80;99.90
17240;DHT22;9943;54.378;18.604;2022-12-18T04:48:54;-1.60;99.90
17240;DHT22;9943;54.378;18.604;2022-12-18T04:51:23;-1.30;99.90
17240;DHT22;9943;54.378;18.604;2022-12-18T04:53:51;-1.60;99.90
17240;DHT22;9943;54.378;18.604;2022-12-18T04:56:21;-1.60;99.90
17240;DHT22;9943;54.378;18.604;2022-12-18T04:58:49;-1.90;99.90
17240;DHT22;9943;54.378;18.604;2022-12-18T05:01:19;-1.30;99.90
17240;DHT22;9943;54.378;18.604;2022-12-18T05:03:48;-1.40;99.90
17240;DHT22;9943;54.378;18.604;2022-12-18T05:06:18;-1.70;99.90
17240;DHT22;9943;54.378;18.604;2022-12-18T05:08:47;-1.70;99.90
17240;DHT22;9943;54.378;18.604;2022-12-18T05:11:16;-1.40;99.90
17240;DHT22;9943;54.378;18.604;2022-12-18T05:13:48;-1.50;99.90
17240;DHT22;9943;54.378;18.604;2022-12-18T05:16:16;-1.00;99.90
17240;DHT22;9943;54.378;18.604;2022-12-18T05:18:44;-1.50;99.90
17240;DHT22;9943;54.378;18.604;2022-12-18T05:21:13;-1.60;99.90
17240;DHT22;9943;54.378;18.604;2022-12-18T05:23:43;-1.50;99.90
17240;DHT22;9943;54.378;18.604;2022-12-18T05:26:15;-1.90;99.90
17240;DHT22;9943;54.378;18.604;2022-12-18T05:28:45;-1.50;99.90
17240;DHT22;9943;54.378;18.604;2022-12-18T05:31:14;-1.70;99.90
17240;DHT22;9943;54.378;18.604;2022-12-18T05:33:43;-1.80;99.90
17240;DHT22;9943;54.378;18.604;2022-12-18T05:36:12;-1.60;99.90
17240;DHT22;9943;54.378;18.604;2022-12-18T05:38:44;-1.60;99.90
17240;DHT22;9943;54.378;18.604;2022-12-18T05:41:16;-1.90;99.90
17240;DHT22;9943;54.378;18.604;2022-12-18T05:43:46;-1.60;99.90
17240;DHT22;9943;54.378;18.604;2022-12-18T05:46:17;-1.80;99.90
17240;DHT22;9943;54.378;18.604;2022-12-18T05:48:46;-1.70;99.90
17240;DHT22;9943;54.378;18.604;2022-12-18T05:51:16;-1.60;99.90
17240;DHT22;9943;54.378;18.604;2022-12-18T05:53:48;-1.70;99.90
17240;DHT22;9943;54.378;18.604;2022-12-18T05:56:21;-1.40;99.90
17240;DHT22;9943;54.378;18.604;2022-12-18T05:58:52;-1.00;99.90
17240;DHT22;9943;54.378;18.604;2022-12-18T06:01:23;-1.60;99.90
17240;DHT22;9943;54.378;18.604;2022-12-18T06:03:53;-1.80;99.90
17240;DHT22;9943;54.378;18.604;2022-12-18T06:06:24;-1.60;99.90
17240;DHT22;9943;54.378;18.604;2022-12-18T06:08:56;-1.50;99.90
17240;DHT22;9943;54.378;18.604;2022-12-18T06:11:26;-1.50;99.90
17240;DHT22;9943;54.378;18.604;2022-12-18T06:13:56;-1.80;99.90
17240;DHT22;9943;54.378;18.604;2022-12-18T06:16:26;-1.40;99.90
17240;DHT22;9943;54.378;18.604;2022-12-18T06:18:56;-1.80;99.90
17240;DHT22;9943;54.378;18.604;2022-12-18T06:21:25;-1.60;99.90
17240;DHT22;9943;54.378;18.604;2022-12-18T06:23:56;-1.70;99.90
17240;DHT22;9943;54.378;18.604;2022-12-18T06:26:25;-1.80;99.90
17240;DHT22;9943;54.378;18.604;2022-12-18T06:28:55;-1.60;99.90
17240;DHT22;9943;54.378;18.604;2022-12-18T06:31:24;-1.60;99.90
17240;DHT22;9943;54.378;18.604;2022-12-18T06:33:53;-1.60;99.90
17240;DHT22;9943;54.378;18.604;2022-12-18T06:36:21;-1.50;99.90
17240;DHT22;9943;54.378;18.604;2022-12-18T06:38:49;-1.70;99.90
17240;DHT22;9943;54.378;18.604;2022-12-18T06:41:23;-1.70;99.90
17240;DHT22;9943;54.378;18.604;2022-12-18T06:43:52;-1.70;99.90
17240;DHT22;9943;54.378;18.604;2022-12-18T06:46:21;-1.40;99.90
17240;DHT22;9943;54.378;18.604;2022-12-18T06:48:50;-1.80;99.90
17240;DHT22;9943;54.378;18.604;2022-12-18T06:51:22;-1.50;99.90
17240;DHT22;9943;54.378;18.604;2022-12-18T06:53:51;-1.90;99.90
17240;DHT22;9943;54.378;18.604;2022-12-18T06:56:21;-1.40;99.90
17240;DHT22;9943;54.378;18.604;2022-12-18T06:58:51;-1.50;99.90
17240;DHT22;9943;54.378;18.604;2022-12-18T07:01:20;-1.70;99.90
17240;DHT22;9943;54.378;18.604;2022-12-18T07:03:52;-1.60;99.90
17240;DHT22;9943;54.378;18.604;2022-12-18T07:06:23;-1.50;99.90
17240;DHT22;9943;54.378;18.604;2022-12-18T07:08:53;-1.90;99.90
17240;DHT22;9943;54.378;18.604;2022-12-18T07:11:23;-1.60;99.90
17240;DHT22;9943;54.378;18.604;2022-12-18T07:13:54;-1.60;99.90
17240;DHT22;9943;54.378;18.604;2022-12-18T07:16:23;-1.80;99.90
17240;DHT22;9943;54.378;18.604;2022-12-18T07:18:51;-1.50;99.90
17240;DHT22;9943;54.378;18.604;2022-12-18T07:21:20;-1.50;99.90
17240;DHT22;9943;54.378;18.604;2022-12-18T07:23:48;-1.70;99.90
17240;DHT22;9943;54.378;18.604;2022-12-18T07:26:19;-1.30;99.90
17240;DHT22;9943;54.378;18.604;2022-12-18T07:28:50;-1.70;99.90
17240;DHT22;9943;54.378;18.604;2022-12-18T07:31:20;-1.40;99.90
17240;DHT22;9943;54.378;18.604;2022-12-18T07:33:50;-0.60;99.90
17240;DHT22;9943;54.378;18.604;2022-12-18T07:36:19;0.00;99.90
17240;DHT22;9943;54.378;18.604;2022-12-18T07:38:49;0.50;99.90
17240;DHT22;9943;54.378;18.604;2022-12-18T07:41:18;1.00;99.90
17240;DHT22;9943;54.378;18.604;2022-12-18T07:43:47;1.80;99.90
17240;DHT22;9943;54.378;18.604;2022-12-18T07:46:18;1.70;99.90
17240;DHT22;9943;54.378;18.604;2022-12-18T07:48:48;2.40;99.90
17240;DHT22;9943;54.378;18.604;2022-12-18T07:51:19;2.30;99.90
17240;DHT22;9943;54.378;18.604;2022-12-18T07:53:47;2.60;99.90
17240;DHT22;9943;54.378;18.604;2022-12-18T07:56:18;2.80;99.90
17240;DHT22;9943;54.378;18.604;2022-12-18T07:58:47;2.70;99.90
17240;DHT22;9943;54.378;18.604;2022-12-18T08:01:18;2.80;99.90
17240;DHT22;9943;54.378;18.604;2022-12-18T08:03:46;3.10;99.90
17240;DHT22;9943;54.378;18.604;2022-12-18T08:06:15;3.60;99.90
17240;DHT22;9943;54.378;18.604;2022-12-18T08:08:43;3.50;99.90
17240;DHT22;9943;54.378;18.604;2022-12-18T08:11:12;4.10;99.90
17240;DHT22;9943;54.378;18.604;2022-12-18T08:13:41;4.00;99.90
17240;DHT22;9943;54.378;18.604;2022-12-18T08:16:10;4.10;99.90
17240;DHT22;9943;54.378;18.604;2022-12-18T08:18:40;4.10;99.90
17240;DHT22;9943;54.378;18.604;2022-12-18T08:21:09;5.10;99.90
17240;DHT22;9943;54.378;18.604;2022-12-18T08:23:38;4.40;99.90
17240;DHT22;9943;54.378;18.604;2022-12-18T08:26:08;4.50;99.90
17240;DHT22;9943;54.378;18.604;2022-12-18T08:28:37;5.20;99.90
17240;DHT22;9943;54.378;18.604;2022-12-18T08:31:06;5.40;99.90
17240;DHT22;9943;54.378;18.604;2022-12-18T08:33:36;6.30;99.90
17240;DHT22;9943;54.378;18.604;2022-12-18T08:36:09;6.30;99.90
17240;DHT22;9943;54.378;18.604;2022-12-18T08:38:38;6.20;99.90
17240;DHT22;9943;54.378;18.604;2022-12-18T08:41:16;5.80;99.90
17240;DHT22;9943;54.378;18.604;2022-12-18T08:43:45;6.10;99.90
17240;DHT22;9943;54.378;18.604;2022-12-18T08:46:35;6.50;99.90
17240;DHT22;9943;54.378;18.604;2022-12-18T08:49:05;7.30;99.90
17240;DHT22;9943;54.378;18.604;2022-12-18T08:51:35;7.70;99.90
17240;DHT22;9943;54.378;18.604;2022-12-18T08:54:05;7.80;99.90
17240;DHT22;9943;54.378;18.604;2022-12-18T08:56:34;8.70;99.90
17240;DHT22;9943;54.378;18.604;2022-12-18T08:59:05;8.70;99.90
17240;DHT22;9943;54.378;18.604;2022-12-18T09:01:34;8.80;99.90
17240;DHT22;9943;54.378;18.604;2022-12-18T09:04:02;9.00;99.90
17240;DHT22;9943;54.378;18.604;2022-12-18T09:06:31;8.40;99.90
17240;DHT22;9943;54.378;18.604;2022-12-18T09:09:01;8.60;99.90
17240;DHT22;9943;54.378;18.604;2022-12-18T09:11:31;8.00;99.90
17240;DHT22;9943;54.378;18.604;2022-12-18T09:14:00;8.00;99.90
17240;DHT22;9943;54.378;18.604;2022-12-18T09:16:32;8.10;99.90
17240;DHT22;9943;54.378;18.604;2022-12-18T09:19:03;7.90;99.90
17240;DHT22;9943;54.378;18.604;2022-12-18T09:21:33;8.60;99.90
17240;DHT22;9943;54.378;18.604;2022-12-18T09:24:06;7.80;99.90
17240;DHT22;9943;54.378;18.604;2022-12-18T09:26:37;8.50;99.90
17240;DHT22;9943;54.378;18.604;2022-12-18T09:29:08;8.00;99.90
17240;DHT22;9943;54.378;18.604;2022-12-18T09:31:38;7.70;99.90
17240;DHT22;9943;54.378;18.604;2022-12-18T09:34:07;8.80;99.90
17240;DHT22;9943;54.378;18.604;2022-12-18T09:36:35;8.40;99.90
17240;DHT22;9943;54.378;18.604;2022-12-18T09:39:05;8.50;99.90
17240;DHT22;9943;54.378;18.604;2022-12-18T09:41:40;8.30;99.90
17240;DHT22;9943;54.378;18.604;2022-12-18T09:44:17;8.40;99.90
17240;DHT22;9943;54.378;18.604;2022-12-18T09:46:53;8.70;99.90
17240;DHT22;9943;54.378;18.604;2022-12-18T09:49:26;8.60;99.90
17240;DHT22;9943;54.378;18.604;2022-12-18T09:51:59;8.10;99.90
17240;DHT22;9943;54.378;18.604;2022-12-18T09:54:35;8.90;99.90
17240;DHT22;9943;54.378;18.604;2022-12-18T09:57:04;8.70;99.90
17240;DHT22;9943;54.378;18.604;2022-12-18T09:59:36;8.80;99.90
17240;DHT22;9943;54.378;18.604;2022-12-18T10:02:17;9.00;99.90
17240;DHT22;9943;54.378;18.604;2022-12-18T10:04:51;8.50;99.90
17240;DHT22;9943;54.378;18.604;2022-12-18T10:07:27;9.10;99.90
17240;DHT22;9943;54.378;18.604;2022-12-18T10:10:04;9.10;99.90
17240;DHT22;9943;54.378;18.604;2022-12-18T10:12:41;9.00;99.90
17240;DHT22;9943;54.378;18.604;2022-12-18T10:15:16;8.70;99.90
17240;DHT22;9943;54.378;18.604;2022-12-18T10:17:53;8.30;99.90
17240;DHT22;9943;54.378;18.604;2022-12-18T10:20:31;7.80;99.90
17240;DHT22;9943;54.378;18.604;2022-12-18T10:23:05;8.00;99.90
17240;DHT22;9943;54.378;18.604;2022-12-18T10:25:51;8.20;99.90
17240;DHT22;9943;54.378;18.604;2022-12-18T10:28:23;7.90;99.90
17240;DHT22;9943;54.378;18.604;2022-12-18T10:30:54;7.60;99.90
17240;DHT22;9943;54.378;18.604;2022-12-18T10:33:24;8.30;99.90
17240;DHT22;9943;54.378;18.604;2022-12-18T10:35:55;8.40;99.90
17240;DHT22;9943;54.378;18.604;2022-12-18T10:38:26;8.60;99.90
17240;DHT22;9943;54.378;18.604;2022-12-18T10:40:59;7.60;99.90
17240;DHT22;9943;54.378;18.604;2022-12-18T10:43:29;7.30;99.90
17240;DHT22;9943;54.378;18.604;2022-12-18T10:46:02;6.90;99.90
17240;DHT22;9943;54.378;18.604;2022-12-18T10:48:37;6.90;99.90
17240;DHT22;9943;54.378;18.604;2022-12-18T10:51:10;6.80;99.90
17240;DHT22;9943;54.378;18.604;2022-12-18T10:53:52;5.90;99.90
17240;DHT22;9943;54.378;18.604;2022-12-18T10:56:24;6.00;99.90
17240;DHT22;9943;54.378;18.604;2022-12-18T10:59:00;5.60;99.90
17240;DHT22;9943;54.378;18.604;2022-12-18T11:01:44;5.80;99.90
17240;DHT22;9943;54.378;18.604;2022-12-18T11:04:18;5.00;99.90
17240;DHT22;9943;54.378;18.604;2022-12-18T11:06:58;4.90;99.90
17240;DHT22;9943;54.378;18.604;2022-12-18T11:09:31;5.00;99.90
17240;DHT22;9943;54.378;18.604;2022-12-18T11:12:21;4.70;99.90
17240;DHT22;9943;54.378;18.604;2022-12-18T11:14:52;4.60;99.90
17240;DHT22;9943;54.378;18.604;2022-12-18T11:17:30;4.70;99.90
17240;DHT22;9943;54.378;18.604;2022-12-18T11:20:00;4.70;99.90
17240;DHT22;9943;54.378;18.604;2022-12-18T11:22:33;4.60;99.90
17240;DHT22;9943;54.378;18.604;2022-12-18T11:25:05;4.30;99.90
17240;DHT22;9943;54.378;18.604;2022-12-18T11:27:40;4.10;99.90
17240;DHT22;9943;54.378;18.604;2022-12-18T11:30:22;3.80;99.90
17240;DHT22;9943;54.378;18.604;2022-12-18T11:32:53;3.70;99.90
17240;DHT22;9943;54.378;18.604;2022-12-18T11:35:37;3.30;99.90
17240;DHT22;9943;54.378;18.604;2022-12-18T11:38:18;2.90;99.90
17240;DHT22;9943;54.378;18.604;2022-12-18T11:40:54;2.40;99.90
17240;DHT22;9943;54.378;18.604;2022-12-18T11:43:28;2.60;99.90
17240;DHT22;9943;54.378;18.604;2022-12-18T11:46:03;2.40;99.90
17240;DHT22;9943;54.378;18.604;2022-12-18T11:48:37;2.00;99.90
17240;DHT22;9943;54.378;18.604;2022-12-18T11:51:12;2.10;99.90
17240;DHT22;9943;54.378;18.604;2022-12-18T11:53:42;1.80;99.90
17240;DHT22;9943;54.378;18.604;2022-12-18T11:56:26;1.70;99.90
17240;DHT22;9943;54.378;18.604;2022-12-18T11:59:06;1.60;99.90
17240;DHT22;9943;54.378;18.604;2022-12-18T12:01:47;1.60;99.90
17240;DHT22;9943;54.378;18.604;2022-12-18T12:04:56;1.70;99.90
17240;DHT22;9943;54.378;18.604;2022-12-18T12:07:37;1.50;99.90
17240;DHT22;9943;54.378;18.604;2022-12-18T12:10:22;1.50;99.90
17240;DHT22;9943;54.378;18.604;2022-12-18T12:13:07;1.50;99.90
17240;DHT22;9943;54.378;18.604;2022-12-18T12:15:46;1.50;99.90
17240;DHT22;9943;54.378;18.604;2022-12-18T12:18:25;1.60;99.90
17240;DHT22;9943;54.378;18.604;2022-12-18T12:21:02;1.80;99.90
17240;DHT22;9943;54.378;18.604;2022-12-18T12:23:40;1.80;99.90
17240;DHT22;9943;54.378;18.604;2022-12-18T12:26:18;2.20;99.90
17240;DHT22;9943;54.378;18.604;2022-12-18T12:29:09;2.70;99.90
17240;DHT22;9943;54.378;18.604;2022-12-18T12:31:55;2.20;99.90
17240;DHT22;9943;54.378;18.604;2022-12-18T12:34:31;2.20;99.90
17240;DHT22;9943;54.378;18.604;2022-12-18T12:37:18;1.80;99.90
17240;DHT22;9943;54.378;18.604;2022-12-18T12:39:48;1.90;99.90
17240;DHT22;9943;54.378;18.604;2022-12-18T12:42:23;1.80;99.90
17240;DHT22;9943;54.378;18.604;2022-12-18T12:45:18;1.70;99.90
17240;DHT22;9943;54.378;18.604;2022-12-18T12:47:50;1.60;99.90
17240;DHT22;9943;54.378;18.604;2022-12-18T12:50:22;1.70;99.90
17240;DHT22;9943;54.378;18.604;2022-12-18T12:52:53;1.30;99.90
17240;DHT22;9943;54.378;18.604;2022-12-18T12:55:25;1.30;99.90
17240;DHT22;9943;54.378;18.604;2022-12-18T12:58:02;1.20;99.90
17240;DHT22;9943;54.378;18.604;2022-12-18T13:00:43;1.10;99.90
17240;DHT22;9943;54.378;18.604;2022-12-18T13:03:27;1.00;99.90
17240;DHT22;9943;54.378;18.604;2022-12-18T13:06:00;1.20;99.90
17240;DHT22;9943;54.378;18.604;2022-12-18T13:08:52;1.00;99.90
17240;DHT22;9943;54.378;18.604;2022-12-18T13:11:31;1.10;99.90
17240;DHT22;9943;54.378;18.604;2022-12-18T13:14:26;0.70;99.90
17240;DHT22;9943;54.378;18.604;2022-12-18T13:17:15;1.00;99.90
17240;DHT22;9943;54.378;18.604;2022-12-18T13:19:50;1.10;99.90
17240;DHT22;9943;54.378;18.604;2022-12-18T13:22:25;0.70;99.90
17240;DHT22;9943;54.378;18.604;2022-12-18T13:24:56;0.50;99.90
17240;DHT22;9943;54.378;18.604;2022-12-18T13:27:53;0.70;99.90
17240;DHT22;9943;54.378;18.604;2022-12-18T13:30:54;0.50;99.90
17240;DHT22;9943;54.378;18.604;2022-12-18T13:33:47;0.50;99.90
17240;DHT22;9943;54.378;18.604;2022-12-18T13:36:31;0.60;99.90
17240;DHT22;9943;54.378;18.604;2022-12-18T13:39:24;0.70;99.90
17240;DHT22;9943;54.378;18.604;2022-12-18T13:42:38;0.10;99.90
17240;DHT22;9943;54.378;18.604;2022-12-18T13:46:00;0.00;99.90
17240;DHT22;9943;54.378;18.604;2022-12-18T13:48:32;-0.10;99.90
17240;DHT22;9943;54.378;18.604;2022-12-18T13:51:03;0.00;99.90
17240;DHT22;9943;54.378;18.604;2022-12-18T13:53:42;-0.10;99.90
17240;DHT22;9943;54.378;18.604;2022-12-18T13:56:21;-0.10;99.90
17240;DHT22;9943;54.378;18.604;2022-12-18T13:59:13;-0.10;99.90
17240;DHT22;9943;54.378;18.604;2022-12-18T14:01:48;0.00;99.90
17240;DHT22;9943;54.378;18.604;2022-12-18T14:04:32;-0.20;99.90
17240;DHT22;9943;54.378;18.604;2022-12-18T14:07:03;-0.60;99.90
17240;DHT22;9943;54.378;18.604;2022-12-18T14:09:39;-0.60;99.90
17240;DHT22;9943;54.378;18.604;2022-12-18T14:12:15;-0.60;99.90
17240;DHT22;9943;54.378;18.604;2022-12-18T14:15:02;-0.60;99.90
17240;DHT22;9943;54.378;18.604;2022-12-18T14:17:32;-0.70;99.90
17240;DHT22;9943;54.378;18.604;2022-12-18T14:20:03;-0.70;99.90
17240;DHT22;9943;54.378;18.604;2022-12-18T14:22:33;-0.70;99.90
17240;DHT22;9943;54.378;18.604;2022-12-18T14:25:15;-0.80;99.90
17240;DHT22;9943;54.378;18.604;2022-12-18T14:27:50;-0.90;99.90
17240;DHT22;9943;54.378;18.604;2022-12-18T14:30:30;-1.00;99.90
17240;DHT22;9943;54.378;18.604;2022-12-18T14:33:03;-0.90;99.90
17240;DHT22;9943;54.378;18.604;2022-12-18T14:35:37;-0.80;99.90
17240;DHT22;9943;54.378;18.604;2022-12-18T14:38:28;-1.00;99.90
17240;DHT22;9943;54.378;18.604;2022-12-18T14:41:08;-1.00;99.90
17240;DHT22;9943;54.378;18.604;2022-12-18T14:43:43;-1.10;99.90
17240;DHT22;9943;54.378;18.604;2022-12-18T14:46:32;-1.10;99.90
17240;DHT22;9943;54.378;18.604;2022-12-18T14:49:20;-1.20;99.90
17240;DHT22;9943;54.378;18.604;2022-12-18T14:51:52;-1.20;99.90
17240;DHT22;9943;54.378;18.604;2022-12-18T14:54:24;-1.20;99.90
17240;DHT22;9943;54.378;18.604;2022-12-18T14:57:05;-1.30;99.90
17240;DHT22;9943;54.378;18.604;2022-12-18T14:59:44;-1.30;99.90
17240;DHT22;9943;54.378;18.604;2022-12-18T15:02:18;-1.50;99.90
17240;DHT22;9943;54.378;18.604;2022-12-18T15:05:03;-1.30;99.90
17240;DHT22;9943;54.378;18.604;2022-12-18T15:07:40;-1.50;99.90
17240;DHT22;9943;54.378;18.604;2022-12-18T15:10:12;-1.50;99.90
17240;DHT22;9943;54.378;18.604;2022-12-18T15:12:47;-1.50;99.90
17240;DHT22;9943;54.378;18.604;2022-12-18T15:15:47;-1.40;99.90
17240;DHT22;9943;54.378;18.604;2022-12-18T15:18:18;-1.60;99.90
17240;DHT22;9943;54.378;18.604;2022-12-18T15:20:49;-1.50;99.90
17240;DHT22;9943;54.378;18.604;2022-12-18T15:23:22;-1.60;99.90
17240;DHT22;9943;54.378;18.604;2022-12-18T15:25:58;-1.70;99.90
17240;DHT22;9943;54.378;18.604;2022-12-18T15:28:34;-1.60;99.90
17240;DHT22;9943;54.378;18.604;2022-12-18T15:31:22;-1.60;99.90
17240;DHT22;9943;54.378;18.604;2022-12-18T15:34:17;-1.60;99.90
17240;DHT22;9943;54.378;18.604;2022-12-18T15:36:50;-1.70;99.90
17240;DHT22;9943;54.378;18.604;2022-12-18T15:39:22;-1.80;99.90
17240;DHT22;9943;54.378;18.604;2022-12-18T15:41:51;-1.80;99.90
17240;DHT22;9943;54.378;18.604;2022-12-18T15:44:45;-1.90;99.90
17240;DHT22;9943;54.378;18.604;2022-12-18T15:47:14;-1.90;99.90
17240;DHT22;9943;54.378;18.604;2022-12-18T15:49:53;-2.10;99.90
17240;DHT22;9943;54.378;18.604;2022-12-18T15:52:41;-2.20;99.90
17240;DHT22;9943;54.378;18.604;2022-12-18T15:55:14;-2.20;99.90
17240;DHT22;9943;54.378;18.604;2022-12-18T15:58:04;-2.20;99.90
17240;DHT22;9943;54.378;18.604;2022-12-18T16:00:39;-2.30;99.90
17240;DHT22;9943;54.378;18.604;2022-12-18T16:03:12;-2.30;99.90
17240;DHT22;9943;54.378;18.604;2022-12-18T16:05:42;-2.40;99.90
17240;DHT22;9943;54.378;18.604;2022-12-18T16:08:12;-2.40;99.90
17240;DHT22;9943;54.378;18.604;2022-12-18T16:10:41;-2.60;99.90
17240;DHT22;9943;54.378;18.604;2022-12-18T16:13:10;-2.50;99.90
17240;DHT22;9943;54.378;18.604;2022-12-18T16:15:42;-2.70;99.90
17240;DHT22;9943;54.378;18.604;2022-12-18T16:18:12;-3.50;99.90